createdAt,value
2017-11-17T00:02:17.462Z,38.30
2017-11-17T00:04:45.624Z,37.92
2017-11-17T00:07:13.758Z,40.38
2017-11-17T00:09:41.946Z,37.53
2017-11-17T00:12:10.105Z,38.53
2017-11-17T00:14:38.238Z,40.67
2017-11-17T00:17:06.373Z,40.30
2017-11-17T00:19:34.652Z,41.37
2017-11-17T00:22:02.777Z,38.05
2017-11-17T00:24:30.950Z,38.88
2017-11-17T00:26:59.090Z,44.38
2017-11-17T00:29:27.258Z,39.08
2017-11-17T00:31:55.403Z,41.17
2017-11-17T00:34:23.541Z,38.08
2017-11-17T00:36:51.841Z,38.58
2017-11-17T00:39:19.986Z,43.40
2017-11-17T00:41:48.116Z,42.70
2017-11-17T00:44:17.044Z,42.80
2017-11-17T00:46:45.218Z,42.25
2017-11-17T00:49:13.345Z,46.70
2017-11-17T00:51:42.294Z,45.25
2017-11-17T00:54:10.433Z,41.25
2017-11-17T00:56:38.560Z,44.63
2017-11-17T00:59:06.849Z,40.47
2017-11-17T01:01:34.984Z,38.72
2017-11-17T01:04:03.292Z,49.85
2017-11-17T01:06:31.425Z,41.50
2017-11-17T01:08:59.557Z,42.83
2017-11-17T01:11:28.514Z,40.47
2017-11-17T01:13:56.656Z,42.55
2017-11-17T01:16:24.776Z,41.25
2017-11-17T01:18:52.942Z,40.08
2017-11-17T01:21:21.086Z,44.45
2017-11-17T01:23:49.358Z,44.47
2017-11-17T01:26:17.493Z,45.67
2017-11-17T01:28:46.425Z,44.83
2017-11-17T01:31:14.565Z,42.62
2017-11-17T01:33:43.486Z,38.80
2017-11-17T01:36:11.643Z,48.75
2017-11-17T01:38:39.785Z,40.67
2017-11-17T01:41:08.056Z,45.25
2017-11-17T01:43:36.204Z,39.35
2017-11-17T01:46:04.398Z,38.30
2017-11-17T01:48:32.529Z,42.58
2017-11-17T01:51:00.701Z,41.35
2017-11-17T01:53:28.833Z,48.17
2017-11-17T01:55:57.122Z,41.10
2017-11-17T01:58:26.055Z,41.83
2017-11-17T02:00:54.201Z,46.03
2017-11-17T02:03:22.490Z,40.83
2017-11-17T02:05:50.637Z,43.08
2017-11-17T02:08:19.570Z,45.60
2017-11-17T02:10:47.774Z,44.55
2017-11-17T02:13:15.913Z,44.38
2017-11-17T02:15:44.106Z,42.90
2017-11-17T02:18:12.249Z,43.33
2017-11-17T02:20:40.533Z,49.42
2017-11-17T02:23:08.666Z,43.85
2017-11-17T02:25:37.562Z,43.83
2017-11-17T02:28:06.497Z,43.85
2017-11-17T02:30:34.636Z,43.03
2017-11-17T02:33:02.909Z,39.53
2017-11-17T02:35:31.046Z,41.88
2017-11-17T02:37:59.315Z,43.70
2017-11-17T02:40:27.450Z,40.83
2017-11-17T02:42:55.573Z,44.30
2017-11-17T02:45:23.759Z,38.85
2017-11-17T02:47:52.665Z,41.05
2017-11-17T02:50:20.858Z,42.17
2017-11-17T02:52:48.986Z,43.78
2017-11-17T02:55:17.132Z,43.95
2017-11-17T02:57:45.317Z,44.35
2017-11-17T03:00:13.455Z,38.15
2017-11-17T03:02:41.630Z,41.03
2017-11-17T03:05:09.773Z,44.83
2017-11-17T03:07:38.671Z,43.08
2017-11-17T03:10:06.959Z,41.25
2017-11-17T03:12:35.096Z,40.08
2017-11-17T03:15:03.254Z,41.40
2017-11-17T03:17:31.393Z,42.45
2017-11-17T03:19:59.565Z,36.83
2017-11-17T03:22:27.701Z,39.58
2017-11-17T03:24:56.608Z,38.75
2017-11-17T03:27:24.871Z,41.22
2017-11-17T03:29:53.011Z,49.65
2017-11-17T03:32:21.166Z,47.90
2017-11-17T03:34:49.298Z,47.40
2017-11-17T03:37:17.471Z,43.13
2017-11-17T03:39:46.352Z,43.70
2017-11-17T03:42:15.395Z,38.97
2017-11-17T03:44:43.540Z,43.15
2017-11-17T03:47:11.681Z,44.17
2017-11-17T03:49:40.722Z,40.22
2017-11-17T03:52:08.873Z,43.63
2017-11-17T03:54:37.041Z,43.60
2017-11-17T03:57:05.183Z,43.17
2017-11-17T03:59:33.377Z,44.55
2017-11-17T04:02:02.301Z,36.70
2017-11-17T04:04:30.475Z,45.47
2017-11-17T04:06:58.610Z,42.80
2017-11-17T04:09:27.518Z,43.30
2017-11-17T04:11:55.686Z,45.12
2017-11-17T04:14:23.823Z,45.45
2017-11-17T04:16:52.100Z,43.13
2017-11-17T04:19:20.281Z,45.58
2017-11-17T04:21:48.414Z,49.17
2017-11-17T04:24:16.553Z,44.85
2017-11-17T04:26:45.479Z,41.53
2017-11-17T04:29:13.615Z,41.53
2017-11-17T04:31:42.562Z,48.40
2017-11-17T04:34:10.693Z,51.03
2017-11-17T04:36:38.950Z,43.20
2017-11-17T04:39:07.842Z,43.35
2017-11-17T04:41:36.800Z,46.65
2017-11-17T04:44:04.922Z,46.00
2017-11-17T04:46:33.085Z,44.97
2017-11-17T04:49:01.989Z,47.35
2017-11-17T04:51:30.125Z,54.60
2017-11-17T04:53:58.286Z,49.88
2017-11-17T04:56:26.425Z,46.30
2017-11-17T04:58:54.705Z,48.40
2017-11-17T05:01:22.838Z,49.80
2017-11-17T05:03:51.003Z,50.55
2017-11-17T05:06:19.169Z,48.00
2017-11-17T05:08:47.298Z,52.22
2017-11-17T05:11:15.465Z,52.80
2017-11-17T05:13:43.609Z,52.20
2017-11-17T05:16:12.662Z,50.85
2017-11-17T05:18:40.793Z,54.85
2017-11-17T05:21:08.946Z,56.95
2017-11-17T05:23:37.882Z,57.20
2017-11-17T05:26:06.786Z,49.95
2017-11-17T05:28:34.954Z,42.85
2017-11-17T05:31:03.095Z,50.80
2017-11-17T05:33:31.225Z,49.40
2017-11-17T05:35:59.429Z,55.88
2017-11-17T05:38:28.345Z,58.42
2017-11-17T05:40:56.478Z,50.30
2017-11-17T05:43:25.451Z,57.15
2017-11-17T05:45:53.575Z,58.17
2017-11-17T05:48:21.709Z,52.13
2017-11-17T05:50:49.906Z,64.43
2017-11-17T05:53:18.821Z,54.08
2017-11-17T05:55:47.018Z,60.58
2017-11-17T05:58:15.908Z,61.15
2017-11-17T06:00:47.006Z,55.53
2017-11-17T06:03:16.025Z,59.15
2017-11-17T06:05:44.162Z,53.30
2017-11-17T06:08:13.084Z,48.72
2017-11-17T06:10:41.278Z,55.83
2017-11-17T06:13:09.413Z,51.00
2017-11-17T06:15:37.546Z,61.13
2017-11-17T06:18:05.843Z,50.65
2017-11-17T06:20:34.004Z,48.22
2017-11-17T06:23:02.152Z,54.53
2017-11-17T06:25:30.286Z,57.13
2017-11-17T06:27:58.463Z,55.75
2017-11-17T06:30:26.643Z,65.50
2017-11-17T06:32:54.770Z,67.90
2017-11-17T06:35:22.918Z,63.80
2017-11-17T06:37:51.202Z,62.80
2017-11-17T06:40:19.342Z,60.63
2017-11-17T06:42:47.474Z,58.95
2017-11-17T06:45:15.637Z,59.70
2017-11-17T06:47:43.767Z,74.12
2017-11-17T06:50:11.948Z,64.12
2017-11-17T06:52:40.074Z,73.47
2017-11-17T06:55:09.042Z,71.25
2017-11-17T06:57:37.194Z,69.80
2017-11-17T07:00:05.316Z,55.15
2017-11-17T07:02:34.247Z,74.25
2017-11-17T07:05:02.386Z,68.28
2017-11-17T07:07:31.325Z,76.47
2017-11-17T07:09:59.479Z,64.62
2017-11-17T07:12:27.610Z,71.00
2017-11-17T07:14:56.650Z,61.35
2017-11-17T07:17:24.786Z,72.80
2017-11-17T07:19:53.738Z,80.00
2017-11-17T07:22:21.862Z,63.10
2017-11-17T07:24:50.157Z,63.10
2017-11-17T07:27:18.293Z,72.57
2017-11-17T07:29:47.197Z,58.78
2017-11-17T07:32:16.125Z,78.47
2017-11-17T07:34:44.261Z,71.43
2017-11-17T07:37:13.202Z,74.50
2017-11-17T07:39:41.335Z,77.18
2017-11-17T07:42:09.474Z,70.45
2017-11-17T07:44:37.768Z,66.55
2017-11-17T07:47:06.667Z,64.37
2017-11-17T07:49:34.946Z,71.05
2017-11-17T07:52:03.087Z,73.37
2017-11-17T07:54:31.218Z,82.00
2017-11-17T07:56:59.387Z,75.30
2017-11-17T07:59:27.522Z,67.87
2017-11-17T08:01:56.583Z,73.50
2017-11-17T08:04:24.707Z,72.68
2017-11-17T08:06:53.632Z,72.82
2017-11-17T08:09:21.784Z,69.68
2017-11-17T08:11:49.921Z,68.60
2017-11-17T08:14:18.086Z,79.22
2017-11-17T08:16:46.230Z,72.05
2017-11-17T08:19:14.366Z,72.35
2017-11-17T08:21:42.662Z,82.55
2017-11-17T08:24:10.847Z,83.47
2017-11-17T08:26:39.000Z,72.68
2017-11-17T08:29:07.145Z,72.05
2017-11-17T08:31:36.093Z,65.85
2017-11-17T08:34:04.233Z,74.97
2017-11-17T08:36:32.373Z,74.03
2017-11-17T08:39:00.638Z,73.80
2017-11-17T08:41:28.781Z,69.82
2017-11-17T08:43:56.938Z,69.35
2017-11-17T08:46:25.073Z,77.53
2017-11-17T08:48:53.975Z,82.80
2017-11-17T08:51:22.129Z,80.90
2017-11-17T08:53:50.271Z,83.32
2017-11-17T08:56:18.545Z,74.25
2017-11-17T08:58:46.677Z,73.85
2017-11-17T09:01:14.881Z,79.00
2017-11-17T09:03:43.014Z,81.20
2017-11-17T09:06:11.976Z,72.12
2017-11-17T09:08:40.130Z,83.82
2017-11-17T09:11:08.285Z,72.18
2017-11-17T09:13:36.556Z,68.95
2017-11-17T09:16:04.692Z,73.30
2017-11-17T09:18:32.962Z,83.25
2017-11-17T09:21:01.134Z,76.85
2017-11-17T09:23:29.273Z,76.18
2017-11-17T09:25:57.413Z,73.60
2017-11-17T09:28:25.592Z,71.75
2017-11-17T09:30:54.532Z,64.05
2017-11-17T09:33:22.686Z,76.95
2017-11-17T09:35:50.996Z,69.50
2017-11-17T09:38:19.155Z,74.87
2017-11-17T09:40:47.290Z,70.95
2017-11-17T09:43:15.453Z,69.97
2017-11-17T09:45:43.590Z,76.82
2017-11-17T09:48:11.879Z,59.05
2017-11-17T09:50:40.006Z,73.82
2017-11-17T09:53:08.235Z,67.35
2017-11-17T09:55:37.137Z,62.67
2017-11-17T09:58:05.306Z,64.03
2017-11-17T10:00:34.200Z,64.30
2017-11-17T10:03:02.337Z,64.00
2017-11-17T10:05:30.635Z,63.80
2017-11-17T10:07:59.544Z,67.95
2017-11-17T10:10:27.725Z,59.13
2017-11-17T10:12:55.869Z,58.78
2017-11-17T10:15:23.997Z,72.32
2017-11-17T10:17:52.178Z,73.37
2017-11-17T10:20:20.318Z,78.70
2017-11-17T10:22:48.599Z,79.82
2017-11-17T10:25:16.753Z,84.15
2017-11-17T10:27:44.926Z,75.43
2017-11-17T10:30:13.071Z,70.30
2017-11-17T10:32:41.209Z,69.80
2017-11-17T10:35:09.373Z,74.30
2017-11-17T10:37:37.502Z,78.40
2017-11-17T10:40:06.563Z,91.45
2017-11-17T10:42:34.703Z,85.93
2017-11-17T10:45:02.829Z,94.15
2017-11-17T10:47:31.134Z,89.43
2017-11-17T10:49:59.290Z,76.53
2017-11-17T10:52:27.458Z,84.32
2017-11-17T10:54:55.591Z,85.55
2017-11-17T10:57:23.735Z,102.35
2017-11-17T10:59:51.912Z,87.37
2017-11-17T11:02:20.037Z,74.15
2017-11-17T11:04:48.330Z,83.22
2017-11-17T11:07:16.450Z,78.60
2017-11-17T11:09:44.624Z,82.53
2017-11-17T11:12:12.817Z,74.47
2017-11-17T11:14:40.973Z,72.43
2017-11-17T11:17:09.243Z,80.80
2017-11-17T11:19:37.386Z,78.93
2017-11-17T11:22:06.338Z,76.47
2017-11-17T11:24:34.476Z,73.50
2017-11-17T11:27:02.649Z,83.72
2017-11-17T11:29:30.778Z,71.18
2017-11-17T11:31:58.925Z,62.85
2017-11-17T11:34:27.090Z,64.03
2017-11-17T11:36:55.231Z,62.97
2017-11-17T11:39:23.375Z,70.30
2017-11-17T11:41:51.646Z,71.12
2017-11-17T11:44:19.796Z,63.83
2017-11-17T11:46:47.961Z,62.58
2017-11-17T11:49:16.128Z,68.37
2017-11-17T11:51:44.259Z,74.18
2017-11-17T11:54:13.194Z,65.05
2017-11-17T11:56:41.337Z,65.70
2017-11-17T11:59:09.479Z,64.03
2017-11-17T12:01:37.648Z,63.78
2017-11-17T12:04:05.799Z,66.55
2017-11-17T12:06:33.970Z,76.47
2017-11-17T12:09:02.114Z,62.10
2017-11-17T12:11:30.434Z,57.53
2017-11-17T12:13:58.552Z,67.72
2017-11-17T12:16:26.685Z,72.35
2017-11-17T12:18:54.974Z,56.20
2017-11-17T12:21:23.902Z,66.15
2017-11-17T12:23:52.058Z,63.40
2017-11-17T12:26:20.950Z,80.78
2017-11-17T12:28:49.086Z,64.25
2017-11-17T12:31:17.266Z,64.12
2017-11-17T12:33:45.394Z,63.35
2017-11-17T12:36:13.683Z,58.10
2017-11-17T12:38:41.842Z,61.63
2017-11-17T12:41:10.015Z,68.93
2017-11-17T12:43:38.155Z,68.35
2017-11-17T12:46:07.118Z,61.80
2017-11-17T12:48:35.257Z,70.50
2017-11-17T12:51:03.405Z,62.03
2017-11-17T12:53:32.479Z,68.97
2017-11-17T12:56:00.594Z,62.95
2017-11-17T12:58:28.768Z,58.03
2017-11-17T13:00:56.911Z,75.00
2017-11-17T13:03:25.965Z,71.30
2017-11-17T13:05:54.801Z,67.30
2017-11-17T13:08:22.946Z,59.33
2017-11-17T13:10:51.122Z,62.80
2017-11-17T13:13:20.030Z,74.62
2017-11-17T13:15:48.945Z,72.35
2017-11-17T13:18:17.110Z,74.07
2017-11-17T13:20:45.251Z,77.35
2017-11-17T13:23:13.398Z,71.87
2017-11-17T13:25:42.348Z,64.28
2017-11-17T13:28:10.512Z,66.07
2017-11-17T13:30:38.649Z,64.30
2017-11-17T13:33:06.830Z,62.05
2017-11-17T13:35:34.971Z,73.00
2017-11-17T13:38:03.132Z,64.68
2017-11-17T13:40:31.329Z,72.20
2017-11-17T13:42:59.467Z,75.47
2017-11-17T13:45:27.693Z,69.37
2017-11-17T13:47:55.845Z,70.97
2017-11-17T13:50:23.985Z,66.20
2017-11-17T13:52:52.183Z,70.87
2017-11-17T13:55:20.328Z,77.55
2017-11-17T13:57:48.468Z,78.25
2017-11-17T14:00:16.658Z,78.93
2017-11-17T14:02:45.574Z,88.15
2017-11-17T14:05:13.725Z,83.53
2017-11-17T14:07:42.679Z,89.13
2017-11-17T14:10:10.869Z,79.25
2017-11-17T14:12:39.068Z,82.95
2017-11-17T14:15:07.966Z,84.43
2017-11-17T14:17:36.115Z,79.20
2017-11-17T14:20:04.278Z,65.45
2017-11-17T14:22:32.420Z,65.65
2017-11-17T14:25:00.720Z,68.90
2017-11-17T14:27:28.852Z,77.55
2017-11-17T14:29:56.995Z,60.25
2017-11-17T14:32:25.959Z,53.17
2017-11-17T14:34:54.111Z,57.53
2017-11-17T14:37:22.259Z,60.17
2017-11-17T14:39:50.442Z,45.42
2017-11-17T14:42:18.591Z,71.25
2017-11-17T14:44:47.493Z,67.22
2017-11-17T14:47:15.763Z,70.95
2017-11-17T14:49:43.903Z,63.53
2017-11-17T14:52:12.075Z,55.25
2017-11-17T14:54:40.230Z,47.62
2017-11-17T14:57:08.431Z,54.80
2017-11-17T14:59:36.569Z,46.10
2017-11-17T15:02:04.746Z,61.97
2017-11-17T15:04:33.220Z,58.20
2017-11-17T15:07:01.350Z,59.58
2017-11-17T15:09:29.639Z,53.58
2017-11-17T15:11:57.822Z,51.97
2017-11-17T15:14:25.978Z,51.72
2017-11-17T15:16:55.027Z,51.45
2017-11-17T15:19:23.170Z,49.88
2017-11-17T15:21:51.343Z,51.58
2017-11-17T15:24:19.494Z,47.28
2017-11-17T15:30:38.713Z,53.08
2017-11-17T15:33:11.050Z,58.17
2017-11-17T15:35:39.188Z,64.65
2017-11-17T15:38:07.370Z,53.85
2017-11-17T15:40:35.517Z,64.18
2017-11-17T15:43:03.672Z,57.65
2017-11-17T15:58:37.581Z,56.33
2017-11-17T16:01:05.745Z,58.87
2017-11-17T16:03:33.900Z,52.40
2017-11-17T16:06:02.104Z,53.15
2017-11-17T16:08:30.226Z,53.80
2017-11-17T16:10:59.211Z,50.65
2017-11-17T16:13:27.355Z,69.10
2017-11-17T16:15:55.509Z,54.80
2017-11-17T16:18:23.826Z,57.28
2017-11-17T16:20:51.961Z,71.62
2017-11-17T16:23:20.128Z,58.15
2017-11-17T16:25:48.306Z,61.75
2017-11-17T16:28:16.461Z,72.28
2017-11-17T16:30:44.618Z,65.82
2017-11-17T16:33:12.758Z,68.30
2017-11-17T16:35:48.727Z,58.25
2017-11-17T16:38:16.859Z,68.55
2017-11-17T16:40:44.995Z,67.50
2017-11-17T16:43:13.207Z,68.80
2017-11-17T16:45:41.357Z,69.70
2017-11-17T16:48:09.513Z,67.32
2017-11-17T16:50:37.649Z,66.72
2017-11-17T16:53:05.846Z,64.45
2017-11-17T16:55:34.752Z,59.90
2017-11-17T16:58:02.936Z,60.05
2017-11-17T17:00:31.080Z,63.95
2017-11-17T17:02:59.248Z,58.65
2017-11-17T17:05:27.399Z,55.53
2017-11-17T17:07:55.542Z,58.60
2017-11-17T17:10:23.873Z,55.85
2017-11-17T17:12:52.812Z,62.65
2017-11-17T17:15:20.977Z,58.17
2017-11-17T17:17:49.138Z,58.83
2017-11-17T17:20:17.318Z,59.42
2017-11-17T17:22:45.457Z,64.47
2017-11-17T17:25:13.604Z,63.60
2017-11-17T17:27:41.897Z,63.63
2017-11-17T17:30:10.026Z,65.25
2017-11-17T17:32:38.222Z,65.85
2017-11-17T17:35:06.379Z,62.22
2017-11-17T17:37:34.506Z,61.08
2017-11-17T17:40:03.458Z,61.55
2017-11-17T17:42:31.605Z,63.75
2017-11-17T17:44:59.807Z,61.20
2017-11-17T17:47:27.944Z,65.07
2017-11-17T17:49:56.264Z,55.72
2017-11-17T17:52:24.438Z,59.15
2017-11-17T17:54:52.570Z,67.45
2017-11-17T17:57:20.865Z,62.35
2017-11-17T17:59:49.003Z,64.70
2017-11-17T18:02:17.145Z,64.35
2017-11-17T18:04:45.430Z,70.28
2017-11-17T18:07:13.603Z,63.87
2017-11-17T18:09:41.768Z,68.97
2017-11-17T18:12:10.000Z,59.10
2017-11-17T18:14:40.046Z,67.80
2017-11-17T18:17:08.231Z,78.25
2017-11-17T18:19:36.415Z,69.72
2017-11-17T18:22:04.784Z,67.05
2017-11-17T18:24:35.824Z,68.05
2017-11-17T18:27:03.966Z,56.15
2017-11-17T18:29:35.326Z,64.45
2017-11-17T18:32:03.571Z,68.68
2017-11-17T18:34:31.738Z,67.55
2017-11-17T18:37:00.699Z,70.25
2017-11-17T18:39:28.915Z,130.12
2017-11-17T18:41:57.110Z,74.87
2017-11-17T18:44:26.028Z,75.70
2017-11-17T18:46:54.922Z,69.62
2017-11-17T18:49:23.116Z,67.22
2017-11-17T18:51:52.053Z,68.32
2017-11-17T18:54:20.175Z,55.63
2017-11-17T18:56:48.522Z,63.70
2017-11-17T18:59:16.665Z,68.75
2017-11-17T19:01:44.883Z,66.20
2017-11-17T19:04:13.014Z,58.95
2017-11-17T19:06:41.204Z,58.60
2017-11-17T19:09:09.338Z,56.70
2017-11-17T19:11:40.203Z,54.72
2017-11-17T19:14:08.368Z,64.35
2017-11-17T19:16:37.281Z,66.55
2017-11-17T19:19:05.427Z,59.40
2017-11-17T19:21:33.582Z,60.70
2017-11-17T19:24:06.362Z,62.40
2017-11-17T19:26:35.278Z,61.55
2017-11-17T19:29:03.523Z,65.10
2017-11-17T19:31:31.673Z,63.20
2017-11-17T19:33:59.872Z,70.60
2017-11-17T19:36:28.817Z,71.40
2017-11-17T19:38:57.211Z,57.05
2017-11-17T19:41:25.396Z,62.10
2017-11-17T19:43:53.553Z,61.60
2017-11-17T19:46:21.787Z,66.87
2017-11-17T19:48:49.919Z,62.53
2017-11-17T19:51:18.104Z,68.85
2017-11-17T19:53:46.246Z,66.62
2017-11-17T19:56:14.442Z,64.85
2017-11-17T19:58:42.601Z,65.25
2017-11-17T20:01:10.750Z,60.22
2017-11-17T20:03:38.987Z,62.30
2017-11-17T20:06:07.141Z,68.62
2017-11-17T20:08:35.358Z,66.07
2017-11-17T20:11:03.518Z,80.15
2017-11-17T20:13:32.419Z,72.55
2017-11-17T20:16:00.637Z,70.75
2017-11-17T20:18:28.820Z,71.18
2017-11-17T20:20:57.040Z,61.70
2017-11-17T20:23:27.706Z,58.20
2017-11-17T20:25:55.900Z,58.87
2017-11-17T20:28:24.072Z,62.42
2017-11-17T20:30:52.208Z,59.63
2017-11-17T20:33:20.517Z,61.22
2017-11-17T20:35:48.667Z,55.92
2017-11-17T20:38:16.959Z,54.47
2017-11-17T20:40:45.115Z,64.72
2017-11-17T20:43:13.282Z,62.05
2017-11-17T20:45:41.512Z,73.78
2017-11-17T20:48:09.667Z,62.80
2017-11-17T20:50:37.840Z,58.53
2017-11-17T20:53:06.082Z,62.50
2017-11-17T20:55:34.340Z,60.12
2017-11-17T20:58:02.495Z,72.50
2017-11-17T21:00:31.479Z,68.20
2017-11-17T21:02:59.612Z,79.68
2017-11-17T21:05:27.764Z,70.93
2017-11-17T21:07:56.084Z,70.28
2017-11-17T21:10:24.273Z,68.35
2017-11-17T21:12:53.207Z,73.05
2017-11-17T21:15:21.352Z,69.72
2017-11-17T21:17:50.297Z,60.50
2017-11-17T21:20:18.440Z,62.97
2017-11-17T21:22:46.750Z,62.47
2017-11-17T21:25:14.892Z,64.85
2017-11-17T21:27:43.063Z,65.20
2017-11-17T21:30:11.238Z,75.90
2017-11-17T21:32:39.387Z,63.17
2017-11-17T21:35:08.351Z,69.15
2017-11-17T21:37:36.507Z,70.00
2017-11-17T21:40:04.652Z,63.72
2017-11-17T21:42:32.956Z,66.30
2017-11-17T21:45:01.125Z,65.90
2017-11-17T21:47:29.276Z,72.37
2017-11-17T21:49:57.427Z,66.37
2017-11-17T21:52:26.366Z,60.50
2017-11-17T21:54:54.525Z,73.22
2017-11-17T21:57:22.659Z,63.35
2017-11-17T21:59:51.735Z,69.30
2017-11-17T22:02:19.864Z,71.97
2017-11-17T22:04:48.153Z,80.43
2017-11-17T22:07:16.306Z,63.83
2017-11-17T22:09:44.487Z,64.97
2017-11-17T22:12:12.651Z,68.80
2017-11-17T22:14:40.803Z,81.63
2017-11-17T22:17:09.088Z,78.90
2017-11-17T22:19:37.238Z,64.82
2017-11-17T22:22:06.136Z,76.95
2017-11-17T22:24:35.106Z,79.65
2017-11-17T22:27:03.258Z,85.15
2017-11-17T22:29:31.448Z,86.00
2017-11-17T22:31:59.609Z,71.90
2017-11-17T22:34:27.760Z,87.45
2017-11-17T22:36:56.694Z,86.00
2017-11-17T22:39:24.998Z,80.90
2017-11-17T22:41:53.915Z,83.35
2017-11-17T22:44:22.057Z,72.62
2017-11-17T22:46:50.225Z,89.03
2017-11-17T22:49:19.130Z,86.68
2017-11-17T22:51:47.298Z,75.70
2017-11-17T22:54:15.440Z,84.62
2017-11-17T22:56:43.576Z,84.35
2017-11-17T22:59:11.865Z,71.82
2017-11-17T23:01:40.021Z,88.72
2017-11-17T23:04:08.203Z,77.95
2017-11-17T23:06:36.351Z,91.68
2017-11-17T23:09:04.647Z,69.25
2017-11-17T23:11:32.803Z,77.85
2017-11-17T23:14:00.923Z,86.78
2017-11-17T23:16:29.113Z,81.10
2017-11-17T23:18:57.250Z,95.60
2017-11-17T23:21:25.432Z,86.05
2017-11-17T23:23:53.558Z,90.00
2017-11-17T23:26:21.726Z,86.37
2017-11-17T23:28:49.873Z,78.47
2017-11-17T23:31:18.189Z,80.12
2017-11-17T23:33:46.322Z,82.97
2017-11-17T23:36:14.473Z,79.47
2017-11-17T23:38:42.627Z,93.78
2017-11-17T23:41:10.774Z,78.28
2017-11-17T23:43:38.939Z,85.38
2017-11-17T23:46:07.835Z,89.18
2017-11-17T23:48:35.967Z,88.20
2017-11-17T23:51:04.254Z,96.43
2017-11-17T23:53:32.385Z,89.55
2017-11-17T23:56:00.555Z,89.95
2017-11-17T23:58:28.703Z,85.95
